Time;durP1;ratioP1;P1;durP2;ratioP2;P2;SDS_P1;SDS_P2;PMS_P1;PMS_P2;Temp;Humidity;BMP_temperature;BMP_pressure;BME280_temperature;BME280_humidity;BME280_pressure;Samples;Min_cycle;Max_cycle;Signal;HPM_P1;HPM_P2
2021/06/23 00:02:21;;;;;;;8.10;5.88;;;;;;;;;;6266402;28;20043;-84
2021/06/23 00:05:24;;;;;;;9.23;5.75;;;;;;;;;;6289266;28;20040;-84
2021/06/23 00:08:25;;;;;;;8.55;5.38;;;;;;;;;;6315960;28;20065;-84
2021/06/23 00:11:39;;;;;;;9.48;5.45;;;;;;;;;;6302231;28;20066;-85
2021/06/23 00:14:42;;;;;;;7.82;5.00;;;;;;;;;;6293514;28;20576;-84
2021/06/23 00:17:43;;;;;;;9.77;6.17;;;;;;;;;;6274977;28;20036;-85
2021/06/23 00:20:46;;;;;;;9.02;5.75;;;;;;;;;;6248340;28;20049;-83
2021/06/23 00:23:47;;;;;;;9.82;5.80;;;;;;;;;;6271710;28;20112;-82
2021/06/23 00:26:49;;;;;;;7.55;5.50;;;;;;;;;;6293336;28;20089;-84
2021/06/23 00:29:51;;;;;;;8.57;5.90;;;;;;;;;;6290269;28;20118;-84
2021/06/23 00:32:54;;;;;;;9.43;6.00;;;;;;;;;;6291776;28;20062;-83
2021/06/23 00:35:56;;;;;;;9.75;5.47;;;;;;;;;;6311021;28;20536;-83
2021/06/23 00:39:00;;;;;;;11.50;5.78;;;;;;;;;;6298980;28;20055;-83
2021/06/23 00:42:03;;;;;;;7.60;5.80;;;;;;;;;;6263574;28;20045;-85
2021/06/23 00:45:07;;;;;;;7.05;5.78;;;;;;;;;;6265267;28;20090;-83
2021/06/23 00:48:10;;;;;;;8.40;6.40;;;;;;;;;;6300346;28;20097;-84
2021/06/23 00:51:17;;;;;;;8.45;5.80;;;;;;;;;;6280292;28;20048;-84
2021/06/23 00:54:29;;;;;;;8.45;5.47;;;;;;;;;;6273733;28;20054;-84
2021/06/23 00:57:32;;;;;;;9.43;5.95;;;;;;;;;;6270872;28;20055;-83
2021/06/23 01:00:35;;;;;;;8.65;6.20;;;;;;;;;;6271444;28;20045;-83
2021/06/23 01:03:37;;;;;;;8.57;5.72;;;;;;;;;;6271587;28;20174;-84
2021/06/23 01:06:42;;;;;;;9.30;6.35;;;;;;;;;;6287603;28;20039;-85
2021/06/23 01:09:45;;;;;;;9.17;6.13;;;;;;;;;;6296375;28;20046;-85
2021/06/23 01:13:14;;;;;;;11.27;6.47;;;;;;;;;;6249392;28;20041;-85
2021/06/23 01:16:18;;;;;;;9.05;5.75;;;;;;;;;;6246648;28;20510;-84
2021/06/23 01:19:24;;;;;;;9.35;6.25;;;;;;;;;;6263470;28;20036;-84
2021/06/23 01:22:26;;;;;;;11.70;6.95;;;;;;;;;;6286277;28;20135;-83
2021/06/23 01:25:28;;;;;;;8.85;6.10;;;;;;;;;;6270669;28;20040;-82
2021/06/23 01:28:30;;;;;;;9.63;5.72;;;;;;;;;;6295536;28;20036;-82
2021/06/23 01:31:46;;;;;;;8.25;6.28;;;;;;;;;;6273367;28;20052;-84
2021/06/23 01:34:48;;;;;;;10.63;6.32;;;;;;;;;;6263429;28;20045;-83
2021/06/23 01:37:50;;;;;;;9.23;6.63;;;;;;;;;;6288803;28;20119;-83
2021/06/23 01:40:53;;;;;;;8.82;6.35;;;;;;;;;;6290780;28;20060;-83
2021/06/23 01:43:55;;;;;;;6.80;5.63;;;;;;;;;;6259420;28;20071;-84
2021/06/23 01:46:57;;;;;;;9.68;6.25;;;;;;;;;;6294196;28;20048;-82
2021/06/23 01:49:59;;;;;;;7.00;5.70;;;;;;;;;;6267049;28;20044;-83
2021/06/23 01:53:04;;;;;;;10.43;5.95;;;;;;;;;;6275595;28;20044;-83
2021/06/23 01:56:07;;;;;;;10.13;6.10;;;;;;;;;;6293109;28;20498;-81
2021/06/23 01:59:10;;;;;;;7.35;5.70;;;;;;;;;;6293823;28;20045;-83
2021/06/23 02:02:36;;;;;;;9.40;5.90;;;;;;;;;;6278523;28;20041;-83
2021/06/23 02:06:05;;;;;;;9.52;6.15;;;;;;;;;;6275648;28;20040;-82
2021/06/23 02:09:28;;;;;;;9.93;6.07;;;;;;;;;;6275434;28;20544;-83
2021/06/23 02:13:21;;;;;;;8.07;5.63;;;;;;;;;;6290715;28;20147;-81
2021/06/23 02:16:24;;;;;;;8.55;5.97;;;;;;;;;;6292768;28;20051;-82
2021/06/23 02:19:31;;;;;;;7.15;5.50;;;;;;;;;;6294996;28;20048;-80
2021/06/23 02:22:46;;;;;;;9.85;5.60;;;;;;;;;;6242562;28;20123;-82
2021/06/23 02:25:52;;;;;;;6.70;5.55;;;;;;;;;;6272077;28;20048;-80
2021/06/23 02:28:56;;;;;;;7.43;5.82;;;;;;;;;;6305690;28;20051;-82
2021/06/23 02:31:59;;;;;;;;;;;;;;;;;;6305118;28;20036;-84
2021/06/23 02:35:07;;;;;;;9.32;5.63;;;;;;;;;;6304318;28;19947;-84
2021/06/23 02:38:15;;;;;;;7.20;5.38;;;;;;;;;;6288820;28;20055;-82
2021/06/23 02:41:19;;;;;;;7.35;5.47;;;;;;;;;;6314240;28;20063;-82
2021/06/23 02:44:24;;;;;;;8.35;5.47;;;;;;;;;;6288033;28;20047;-83
2021/06/23 02:47:26;;;;;;;7.55;5.85;;;;;;;;;;6287271;28;20072;-82
2021/06/23 02:50:55;;;;;;;8.20;5.85;;;;;;;;;;6287640;28;20040;-83
2021/06/23 02:53:59;;;;;;;11.10;6.20;;;;;;;;;;6287423;28;20181;-83
2021/06/23 02:57:22;;;;;;;10.13;5.93;;;;;;;;;;6304443;28;20409;-85
2021/06/23 03:00:24;;;;;;;8.23;6.03;;;;;;;;;;6303360;28;20043;-84
2021/06/23 03:03:27;;;;;;;8.38;6.03;;;;;;;;;;6304898;28;20501;-82
2021/06/23 03:06:31;;;;;;;9.63;6.38;;;;;;;;;;6262395;28;20051;-83
2021/06/23 03:09:37;;;;;;;8.63;5.85;;;;;;;;;;6237938;28;20127;-84
2021/06/23 03:13:10;;;;;;;9.60;5.90;;;;;;;;;;6266025;28;20044;-83
2021/06/23 03:16:39;;;;;;;11.63;6.10;;;;;;;;;;6241029;28;20037;-84
2021/06/23 03:19:41;;;;;;;8.63;6.30;;;;;;;;;;6283741;28;20045;-83
2021/06/23 03:22:43;;;;;;;9.68;5.95;;;;;;;;;;6278256;28;20040;-84
2021/06/23 03:25:45;;;;;;;11.40;6.75;;;;;;;;;;6261435;28;20041;-83
2021/06/23 03:28:47;;;;;;;9.80;6.90;;;;;;;;;;6277745;28;20058;-84
2021/06/23 03:31:48;;;;;;;9.90;6.80;;;;;;;;;;6261621;28;20070;-84
2021/06/23 03:34:55;;;;;;;10.35;6.88;;;;;;;;;;6262777;28;20110;-83
2021/06/23 03:37:57;;;;;;;9.98;6.68;;;;;;;;;;6264624;28;20125;-85
2021/06/23 03:40:59;;;;;;;8.65;6.60;;;;;;;;;;6265989;28;20110;-84
2021/06/23 03:44:01;;;;;;;8.85;6.40;;;;;;;;;;6263031;28;20044;-82
2021/06/23 03:47:04;;;;;;;10.32;6.72;;;;;;;;;;6283350;28;20045;-81
2021/06/23 03:50:12;;;;;;;10.43;7.40;;;;;;;;;;6265650;28;20048;-82
2021/06/23 03:53:15;;;;;;;9.68;6.53;;;;;;;;;;6280159;28;20055;-83
2021/06/23 03:56:18;;;;;;;9.70;6.80;;;;;;;;;;6276643;28;20415;-84
2021/06/23 03:59:21;;;;;;;8.68;6.55;;;;;;;;;;6272714;28;20048;-83
2021/06/23 04:02:23;;;;;;;11.02;6.53;;;;;;;;;;6269587;28;20058;-82
2021/06/23 04:05:26;;;;;;;11.85;6.22;;;;;;;;;;6286574;28;20501;-85
2021/06/23 04:08:28;;;;;;;9.02;6.05;;;;;;;;;;6284323;28;20040;-81
2021/06/23 04:11:31;;;;;;;13.05;7.13;;;;;;;;;;6290604;28;20047;-82
2021/06/23 04:14:35;;;;;;;9.30;5.93;;;;;;;;;;6266059;28;20498;-84
2021/06/23 04:17:38;;;;;;;8.65;6.03;;;;;;;;;;6274075;28;20042;-85
2021/06/23 04:20:46;;;;;;;9.43;6.10;;;;;;;;;;6260290;28;20043;-83
2021/06/23 04:23:51;;;;;;;10.18;6.75;;;;;;;;;;6275476;28;20044;-83
2021/06/23 04:26:53;;;;;;;8.88;6.30;;;;;;;;;;6286361;28;20056;-85
2021/06/23 04:29:55;;;;;;;9.37;6.17;;;;;;;;;;6257547;28;20037;-82
2021/06/23 04:32:58;;;;;;;7.50;5.90;;;;;;;;;;6286406;28;20462;-81
2021/06/23 04:36:09;;;;;;;9.50;5.80;;;;;;;;;;6274902;28;20041;-84
2021/06/23 04:39:11;;;;;;;9.55;6.10;;;;;;;;;;6290809;28;20386;-84
2021/06/23 04:42:28;;;;;;;8.15;5.82;;;;;;;;;;6258560;28;20037;-80
2021/06/23 04:45:31;;;;;;;8.10;5.45;;;;;;;;;;6287896;28;20037;-83
2021/06/23 04:48:37;;;;;;;8.45;5.75;;;;;;;;;;6250772;28;20041;-81
2021/06/23 04:51:44;;;;;;;8.90;6.35;;;;;;;;;;6270265;28;20051;-83
2021/06/23 04:54:47;;;;;;;6.50;5.07;;;;;;;;;;6259109;28;20055;-83
2021/06/23 04:57:49;;;;;;;10.80;5.90;;;;;;;;;;6267755;28;20048;-83
2021/06/23 05:00:51;;;;;;;8.25;6.28;;;;;;;;;;6272777;28;20052;-85
2021/06/23 05:04:01;;;;;;;10.38;6.38;;;;;;;;;;6260954;28;20083;-85
2021/06/23 05:07:04;;;;;;;6.50;5.80;;;;;;;;;;6278293;28;20413;-84
2021/06/23 05:10:07;;;;;;;9.60;5.57;;;;;;;;;;6278388;28;20087;-83
2021/06/23 05:13:08;;;;;;;9.80;5.80;;;;;;;;;;6272227;28;20095;-82
2021/06/23 05:16:10;;;;;;;8.43;5.93;;;;;;;;;;6266579;28;20120;-84
2021/06/23 05:19:13;;;;;;;10.25;6.65;;;;;;;;;;6293264;28;20047;-84
2021/06/23 05:22:14;;;;;;;10.80;6.80;;;;;;;;;;6296464;28;20221;-85
2021/06/23 05:25:17;;;;;;;8.90;6.30;;;;;;;;;;6275894;28;20079;-84
2021/06/23 05:28:19;;;;;;;7.38;6.15;;;;;;;;;;6251631;28;20096;-84
2021/06/23 05:31:21;;;;;;;9.50;6.20;;;;;;;;;;6250719;28;20049;-82
2021/06/23 05:34:22;;;;;;;6.50;5.70;;;;;;;;;;6266282;28;20044;-83
2021/06/23 05:37:24;;;;;;;9.18;6.13;;;;;;;;;;6284227;28;20046;-81
2021/06/23 05:40:25;;;;;;;8.50;6.75;;;;;;;;;;6294112;28;20068;-84
2021/06/23 05:43:28;;;;;;;8.13;7.05;;;;;;;;;;6289919;28;20044;-82
2021/06/23 05:46:30;;;;;;;6.85;6.00;;;;;;;;;;6273884;28;20052;-81
2021/06/23 05:49:31;;;;;;;7.72;6.93;;;;;;;;;;6289633;28;20048;-80
2021/06/23 05:52:33;;;;;;;9.32;6.28;;;;;;;;;;6265371;28;20094;-84
2021/06/23 05:55:36;;;;;;;9.27;7.28;;;;;;;;;;6270269;28;20041;-81
2021/06/23 05:58:38;;;;;;;11.35;7.55;;;;;;;;;;6273833;28;20521;-82
2021/06/23 06:01:39;;;;;;;11.43;6.93;;;;;;;;;;6257355;28;20417;-81
2021/06/23 06:04:41;;;;;;;13.52;7.57;;;;;;;;;;6307442;28;20040;-84
2021/06/23 06:07:43;;;;;;;11.77;6.60;;;;;;;;;;6284847;28;20552;-84
2021/06/23 06:10:44;;;;;;;12.27;7.60;;;;;;;;;;6282055;28;20145;-83
2021/06/23 06:13:46;;;;;;;11.50;7.47;;;;;;;;;;6261909;28;20048;-84
2021/06/23 06:16:48;;;;;;;9.50;7.15;;;;;;;;;;6262201;28;20048;-84
2021/06/23 06:19:49;;;;;;;10.13;7.25;;;;;;;;;;6295253;28;20072;-84
2021/06/23 06:22:51;;;;;;;8.85;7.15;;;;;;;;;;6282498;28;20040;-82
2021/06/23 06:25:56;;;;;;;11.00;7.60;;;;;;;;;;6300736;28;20052;-84
2021/06/23 06:28:57;;;;;;;10.05;7.28;;;;;;;;;;6267897;28;20108;-82
2021/06/23 06:31:59;;;;;;;10.40;7.38;;;;;;;;;;6265404;28;20086;-82
2021/06/23 06:35:01;;;;;;;12.15;7.22;;;;;;;;;;6281303;28;20060;-84
2021/06/23 06:38:03;;;;;;;9.52;7.50;;;;;;;;;;6260376;28;20052;-83
2021/06/23 06:41:04;;;;;;;12.07;7.70;;;;;;;;;;6268958;28;20049;-80
2021/06/23 06:44:06;;;;;;;12.25;7.68;;;;;;;;;;6236922;28;20045;-83
2021/06/23 06:47:08;;;;;;;10.20;7.18;;;;;;;;;;6282824;28;20040;-79
2021/06/23 06:50:10;;;;;;;13.93;7.60;;;;;;;;;;6293169;28;20060;-83
2021/06/23 06:53:11;;;;;;;11.63;7.45;;;;;;;;;;6302191;28;20123;-80
2021/06/23 06:56:13;;;;;;;11.30;7.07;;;;;;;;;;6286129;28;20520;-78
2021/06/23 06:59:15;;;;;;;9.38;7.20;;;;;;;;;;6287583;28;20050;-82
2021/06/23 07:02:16;;;;;;;11.18;7.35;;;;;;;;;;6283017;28;20060;-82
2021/06/23 07:05:18;;;;;;;11.10;7.43;;;;;;;;;;6270359;28;20053;-80
2021/06/23 07:08:20;;;;;;;11.98;7.57;;;;;;;;;;6268210;28;20105;-82
2021/06/23 07:11:21;;;;;;;12.40;7.43;;;;;;;;;;6258624;28;20517;-82
2021/06/23 07:14:23;;;;;;;10.13;7.00;;;;;;;;;;6250997;28;20045;-79
2021/06/23 07:17:24;;;;;;;13.65;7.95;;;;;;;;;;6240233;28;20116;-80
2021/06/23 07:20:26;;;;;;;9.82;7.18;;;;;;;;;;6271698;28;20066;-80
2021/06/23 07:23:29;;;;;;;12.90;7.65;;;;;;;;;;6257886;28;20124;-83
2021/06/23 07:26:30;;;;;;;10.00;6.78;;;;;;;;;;6253168;28;20183;-80
2021/06/23 07:29:32;;;;;;;13.05;7.30;;;;;;;;;;6244265;28;20049;-79
2021/06/23 07:32:46;;;;;;;8.88;6.60;;;;;;;;;;6254501;28;20057;-80
2021/06/23 07:39:11;;;;;;;11.30;7.25;;;;;;;;;;6244897;28;20037;-82
2021/06/23 07:42:13;;;;;;;9.48;6.82;;;;;;;;;;6259965;28;20049;-80
2021/06/23 07:45:15;;;;;;;10.25;7.68;;;;;;;;;;6291359;28;20053;-81
2021/06/23 07:48:19;;;;;;;9.68;6.65;;;;;;;;;;6263003;28;20055;-81
2021/06/23 07:51:28;;;;;;;9.70;6.80;;;;;;;;;;6256943;28;20046;-81
2021/06/23 08:11:01;;;;;;;8.48;6.40;;;;;;;;;;6272605;28;20124;-81
2021/06/23 08:14:03;;;;;;;7.57;6.75;;;;;;;;;;6293527;28;20508;-81
2021/06/23 08:17:05;;;;;;;8.35;6.68;;;;;;;;;;6290407;28;20647;-81
2021/06/23 08:20:07;;;;;;;14.02;7.50;;;;;;;;;;6289573;28;20044;-81
2021/06/23 08:23:09;;;;;;;10.18;6.68;;;;;;;;;;6291608;28;20044;-82
2021/06/23 08:26:11;;;;;;;12.15;7.93;;;;;;;;;;6292917;28;20052;-82
2021/06/23 08:29:13;;;;;;;11.68;7.78;;;;;;;;;;6269907;28;20132;-82
2021/06/23 08:32:14;;;;;;;9.77;7.30;;;;;;;;;;6266894;28;20108;-82
2021/06/23 08:35:16;;;;;;;8.65;6.15;;;;;;;;;;6302690;28;20123;-82
2021/06/23 08:38:18;;;;;;;9.80;7.57;;;;;;;;;;6295074;28;20040;-82
2021/06/23 08:41:26;;;;;;;9.00;6.53;;;;;;;;;;6273071;28;20147;-81
2021/06/23 08:44:27;;;;;;;9.23;6.35;;;;;;;;;;6259294;28;20041;-82
2021/06/23 08:47:30;;;;;;;9.73;7.43;;;;;;;;;;6267049;28;20041;-82
2021/06/23 08:50:32;;;;;;;8.27;6.90;;;;;;;;;;6274183;28;20045;-82
2021/06/23 08:53:34;;;;;;;9.17;6.20;;;;;;;;;;6289105;28;20555;-83
2021/06/23 08:56:37;;;;;;;8.02;6.03;;;;;;;;;;6287982;28;20461;-81
2021/06/23 08:59:42;;;;;;;10.15;6.25;;;;;;;;;;6290482;28;20123;-83
2021/06/23 09:02:45;;;;;;;9.02;6.25;;;;;;;;;;6289277;28;20429;-83
2021/06/23 09:05:52;;;;;;;9.43;6.18;;;;;;;;;;6265432;28;20515;-83
2021/06/23 09:08:54;;;;;;;8.75;6.18;;;;;;;;;;6246541;28;20125;-82
2021/06/23 09:12:04;;;;;;;7.70;5.93;;;;;;;;;;6251512;28;20139;-82
2021/06/23 09:15:06;;;;;;;10.25;5.88;;;;;;;;;;6251800;28;20065;-82
2021/06/23 09:18:40;;;;;;;10.60;5.88;;;;;;;;;;6258488;28;20049;-82
2021/06/23 09:21:42;;;;;;;8.07;6.15;;;;;;;;;;6250846;28;20517;-83
2021/06/23 09:24:43;;;;;;;7.75;5.55;;;;;;;;;;6250010;28;20037;-81
2021/06/23 09:27:48;;;;;;;9.48;6.25;;;;;;;;;;6254236;28;20067;-83
2021/06/23 09:30:50;;;;;;;7.25;6.40;;;;;;;;;;6245643;28;20077;-82
2021/06/23 09:33:54;;;;;;;11.30;5.80;;;;;;;;;;6262003;28;20041;-83
2021/06/23 09:36:56;;;;;;;6.05;5.35;;;;;;;;;;6256695;28;20166;-80
2021/06/23 09:40:18;;;;;;;;;;;;;;;;;;6288674;28;20503;-77
2021/06/23 09:43:20;;;;;;;6.25;5.30;;;;;;;;;;6240934;28;20007;-80
2021/06/23 09:46:33;;;;;;;5.50;4.93;;;;;;;;;;6261876;28;20049;-80
2021/06/23 09:49:40;;;;;;;8.55;5.47;;;;;;;;;;6268007;28;20190;-79
2021/06/23 09:52:54;;;;;;;7.88;5.35;;;;;;;;;;6289623;28;20036;-79
2021/06/23 09:55:55;;;;;;;6.40;5.60;;;;;;;;;;6290741;28;20119;-81
2021/06/23 09:58:57;;;;;;;6.70;5.10;;;;;;;;;;6292585;28;20123;-81
2021/06/23 10:01:59;;;;;;;7.00;4.78;;;;;;;;;;6295304;28;20131;-79
2021/06/23 10:05:21;;;;;;;5.15;4.65;;;;;;;;;;6286673;28;20120;-81
2021/06/23 10:08:25;;;;;;;6.10;5.23;;;;;;;;;;6275812;28;20041;-80
2021/06/23 10:11:31;;;;;;;6.40;4.97;;;;;;;;;;6286160;28;20082;-81
2021/06/23 10:14:41;;;;;;;7.88;5.05;;;;;;;;;;6299344;28;20123;-81
2021/06/23 10:17:44;;;;;;;6.18;5.07;;;;;;;;;;6297587;28;20071;-81
2021/06/23 10:20:48;;;;;;;5.75;4.82;;;;;;;;;;6293817;28;20127;-80
2021/06/23 10:23:50;;;;;;;5.03;4.63;;;;;;;;;;6295063;28;20127;-80
2021/06/23 10:26:53;;;;;;;5.45;4.63;;;;;;;;;;6273606;28;20052;-83
2021/06/23 10:29:58;;;;;;;4.90;4.50;;;;;;;;;;6270909;28;20041;-82
2021/06/23 10:32:59;;;;;;;5.13;4.63;;;;;;;;;;6269622;28;20638;-83
2021/06/23 10:36:01;;;;;;;5.60;4.35;;;;;;;;;;6277892;28;20132;-83
2021/06/23 10:39:04;;;;;;;6.03;4.45;;;;;;;;;;6245990;28;20415;-83
2021/06/23 10:42:08;;;;;;;6.03;4.32;;;;;;;;;;6303677;28;20041;-82
2021/06/23 10:45:11;;;;;;;5.60;4.45;;;;;;;;;;6272286;28;20044;-85
2021/06/23 10:48:13;;;;;;;4.68;3.80;;;;;;;;;;6273595;28;20045;-85
2021/06/23 10:51:23;;;;;;;4.50;4.07;;;;;;;;;;6254341;28;20105;-84
2021/06/23 10:54:27;;;;;;;5.05;3.80;;;;;;;;;;6262664;28;20041;-84
2021/06/23 10:57:33;;;;;;;3.92;3.55;;;;;;;;;;6285190;28;20163;-81
2021/06/23 11:00:37;;;;;;;5.07;4.47;;;;;;;;;;6285310;28;20045;-82
2021/06/23 11:03:59;;;;;;;;;;;;;;;;;;6285243;28;20080;-81
2021/06/23 11:07:01;;;;;;;4.70;4.30;;;;;;;;;;6277329;28;20412;-82
2021/06/23 11:10:12;;;;;;;4.32;3.90;;;;;;;;;;6274266;28;20048;-80
2021/06/23 11:13:19;;;;;;;4.95;3.97;;;;;;;;;;6260796;28;20052;-82
2021/06/23 11:16:31;;;;;;;4.82;4.32;;;;;;;;;;6255823;28;20041;-82
2021/06/23 11:19:39;;;;;;;3.80;3.50;;;;;;;;;;6296331;28;20040;-84
2021/06/23 11:22:40;;;;;;;5.60;4.30;;;;;;;;;;6244921;28;20037;-83
2021/06/23 11:25:42;;;;;;;7.33;4.37;;;;;;;;;;6286376;28;20047;-83
2021/06/23 11:28:44;;;;;;;4.27;3.87;;;;;;;;;;6306172;28;20048;-82
2021/06/23 11:31:49;;;;;;;4.38;3.97;;;;;;;;;;6285974;28;20040;-83
2021/06/23 11:34:53;;;;;;;4.75;4.30;;;;;;;;;;6292936;28;20044;-82
2021/06/23 11:37:55;;;;;;;4.18;3.72;;;;;;;;;;6311222;28;20044;-85
2021/06/23 11:40:58;;;;;;;3.70;3.40;;;;;;;;;;6301994;28;20132;-82
2021/06/23 11:43:59;;;;;;;5.78;3.85;;;;;;;;;;6280459;28;20041;-85
2021/06/23 11:47:02;;;;;;;5.43;4.00;;;;;;;;;;6295515;28;20104;-83
2021/06/23 11:50:04;;;;;;;;;;;;;;;;;;6286572;28;20048;-83
2021/06/23 11:53:06;;;;;;;4.30;4.00;;;;;;;;;;6320518;28;19938;-84
2021/06/23 11:56:09;;;;;;;7.18;4.70;;;;;;;;;;6281240;28;20045;-84
2021/06/23 11:59:11;;;;;;;4.15;3.75;;;;;;;;;;6268505;28;20053;-84
2021/06/23 12:02:12;;;;;;;4.00;3.60;;;;;;;;;;6252112;28;20515;-84
2021/06/23 12:05:14;;;;;;;4.37;3.97;;;;;;;;;;6238583;28;20083;-85
2021/06/23 12:08:17;;;;;;;4.10;3.70;;;;;;;;;;6254194;28;20069;-82
2021/06/23 12:11:19;;;;;;;4.05;3.58;;;;;;;;;;6253620;28;20095;-83
2021/06/23 12:14:20;;;;;;;3.45;3.08;;;;;;;;;;6254499;28;20417;-84
2021/06/23 12:17:22;;;;;;;4.97;3.60;;;;;;;;;;6253113;28;20642;-83
2021/06/23 12:20:25;;;;;;;3.50;3.20;;;;;;;;;;6309544;28;20465;-81
2021/06/23 12:23:27;;;;;;;3.60;3.25;;;;;;;;;;6302932;28;20127;-80
2021/06/23 12:26:28;;;;;;;3.70;3.27;;;;;;;;;;6273061;28;20041;-83
2021/06/23 12:29:30;;;;;;;4.27;3.50;;;;;;;;;;6269630;28;20127;-82
2021/06/23 12:32:33;;;;;;;3.63;3.33;;;;;;;;;;6290400;28;20048;-83
2021/06/23 12:35:34;;;;;;;;;;;;;;;;;;6314731;28;20293;-82
2021/06/23 12:38:36;;;;;;;3.80;3.40;;;;;;;;;;6301236;28;19931;-82
2021/06/23 12:41:37;;;;;;;3.75;3.38;;;;;;;;;;6298511;28;20121;-82
2021/06/23 12:44:39;;;;;;;3.88;3.40;;;;;;;;;;6317984;28;20044;-82
2021/06/23 12:47:41;;;;;;;5.70;3.63;;;;;;;;;;6279285;28;20051;-81
2021/06/23 12:50:43;;;;;;;4.05;3.65;;;;;;;;;;6291666;28;20072;-80
2021/06/23 12:53:45;;;;;;;;;;;;;;;;;;6291505;28;20549;-82
2021/06/23 12:56:47;;;;;;;5.85;4.40;;;;;;;;;;6303657;28;19995;-80
2021/06/23 12:59:49;;;;;;;6.85;4.20;;;;;;;;;;6296251;28;20036;-82
2021/06/23 13:02:52;;;;;;;3.78;3.40;;;;;;;;;;6313701;28;20040;-81
2021/06/23 13:05:58;;;;;;;4.95;3.60;;;;;;;;;;6302299;28;20047;-80
2021/06/23 13:08:59;;;;;;;3.80;3.50;;;;;;;;;;6303654;28;20040;-80
2021/06/23 13:12:01;;;;;;;3.67;3.35;;;;;;;;;;6257969;28;20162;-82
2021/06/23 13:15:05;;;;;;;5.63;3.97;;;;;;;;;;6285141;28;20413;-79
2021/06/23 13:18:07;;;;;;;5.15;4.55;;;;;;;;;;6270375;28;20049;-79
2021/06/23 13:21:09;;;;;;;4.90;4.35;;;;;;;;;;6264094;28;20060;-81
2021/06/23 13:24:11;;;;;;;5.00;4.60;;;;;;;;;;6266067;28;20056;-79
2021/06/23 13:27:13;;;;;;;5.07;4.40;;;;;;;;;;6262207;28;20695;-80
2021/06/23 13:30:16;;;;;;;6.55;4.45;;;;;;;;;;6265594;28;20754;-80
2021/06/23 13:33:17;;;;;;;4.63;4.18;;;;;;;;;;6274194;28;20041;-80
2021/06/23 13:36:19;;;;;;;4.17;3.77;;;;;;;;;;6278358;28;20048;-80
2021/06/23 13:39:20;;;;;;;5.70;4.10;;;;;;;;;;6274728;28;20150;-81
2021/06/23 13:42:22;;;;;;;5.07;4.63;;;;;;;;;;6276394;28;20055;-81
2021/06/23 13:45:24;;;;;;;4.70;4.30;;;;;;;;;;6277853;28;20383;-81
2021/06/23 13:48:29;;;;;;;5.65;4.10;;;;;;;;;;6292429;28;20572;-84
2021/06/23 13:51:31;;;;;;;4.10;3.80;;;;;;;;;;6307369;28;20094;-83
2021/06/23 13:54:34;;;;;;;5.80;4.35;;;;;;;;;;6299202;28;20041;-83
2021/06/23 13:57:39;;;;;;;5.53;4.20;;;;;;;;;;6276828;28;20048;-86
2021/06/23 14:00:44;;;;;;;4.85;4.13;;;;;;;;;;6299959;28;20055;-86
2021/06/23 14:03:46;;;;;;;5.82;4.43;;;;;;;;;;6298241;28;20178;-85
2021/06/23 14:06:48;;;;;;;4.78;3.97;;;;;;;;;;6296559;28;20044;-84
2021/06/23 14:09:54;;;;;;;4.40;4.03;;;;;;;;;;6278264;28;20062;-84
2021/06/23 14:12:56;;;;;;;6.70;4.00;;;;;;;;;;6319234;28;20046;-85
2021/06/23 14:15:58;;;;;;;6.85;4.20;;;;;;;;;;6306250;28;20048;-85
2021/06/23 14:18:59;;;;;;;4.93;4.38;;;;;;;;;;6297653;28;20117;-85
2021/06/23 14:22:02;;;;;;;5.60;4.30;;;;;;;;;;6264561;28;20563;-82
2021/06/23 14:25:07;;;;;;;4.32;3.92;;;;;;;;;;6301209;28;20041;-85
2021/06/23 14:28:08;;;;;;;6.78;5.00;;;;;;;;;;6297747;28;20123;-85
2021/06/23 14:31:10;;;;;;;5.37;4.33;;;;;;;;;;6299788;28;20591;-82
2021/06/23 14:34:12;;;;;;;5.40;4.53;;;;;;;;;;6281969;28;20549;-84
2021/06/23 14:37:13;;;;;;;5.13;4.27;;;;;;;;;;6287218;28;20071;-83
2021/06/23 14:40:15;;;;;;;6.10;4.40;;;;;;;;;;6300582;28;20542;-84
2021/06/23 14:43:17;;;;;;;6.00;4.53;;;;;;;;;;6291086;28;20044;-84
2021/06/23 14:46:19;;;;;;;4.80;4.40;;;;;;;;;;6283684;28;20159;-81
2021/06/23 14:49:21;;;;;;;6.43;4.73;;;;;;;;;;6306776;28;20044;-81
2021/06/23 14:52:22;;;;;;;5.32;4.25;;;;;;;;;;6307933;28;20501;-82
2021/06/23 14:55:24;;;;;;;6.50;4.95;;;;;;;;;;6303222;28;20129;-82
2021/06/23 14:58:25;;;;;;;6.85;5.68;;;;;;;;;;6297527;28;20066;-83
2021/06/23 15:01:27;;;;;;;7.95;5.05;;;;;;;;;;6298614;28;20162;-82
2021/06/23 15:04:44;;;;;;;5.90;5.38;;;;;;;;;;6266548;28;20060;-78
2021/06/23 15:07:46;;;;;;;7.07;5.15;;;;;;;;;;6256683;28;20128;-81
2021/06/23 15:10:47;;;;;;;5.90;4.90;;;;;;;;;;6264987;28;20043;-81
2021/06/23 15:13:49;;;;;;;7.10;5.28;;;;;;;;;;6300458;28;20043;-82
2021/06/23 15:16:50;;;;;;;5.82;5.32;;;;;;;;;;6305773;28;20052;-79
2021/06/23 15:19:53;;;;;;;5.50;5.00;;;;;;;;;;6288641;28;20036;-82
2021/06/23 15:22:55;;;;;;;5.60;5.00;;;;;;;;;;6299716;28;20126;-84
2021/06/23 15:25:57;;;;;;;6.27;5.67;;;;;;;;;;6290084;28;20064;-84
2021/06/23 15:28:59;;;;;;;13.90;5.18;;;;;;;;;;6291462;28;20052;-83
2021/06/23 15:32:01;;;;;;;6.35;5.03;;;;;;;;;;6293779;28;20056;-83
2021/06/23 15:35:05;;;;;;;6.50;5.63;;;;;;;;;;6265467;28;20094;-83
2021/06/23 15:38:11;;;;;;;32.65;23.90;;;;;;;;;;6288087;28;20044;-82
2021/06/23 15:41:13;;;;;;;5.82;5.15;;;;;;;;;;6273137;28;20076;-82
2021/06/23 15:44:19;;;;;;;6.17;5.10;;;;;;;;;;6273936;28;20113;-82
2021/06/23 15:47:20;;;;;;;5.47;4.82;;;;;;;;;;6273776;28;20450;-83
2021/06/23 15:50:22;;;;;;;5.50;5.00;;;;;;;;;;6270547;28;20067;-84
2021/06/23 15:53:24;;;;;;;7.05;4.93;;;;;;;;;;6267143;28;20051;-84
2021/06/23 15:56:26;;;;;;;5.65;5.15;;;;;;;;;;6266936;28;20131;-84
2021/06/23 15:59:27;;;;;;;5.05;4.55;;;;;;;;;;6250607;28;20063;-84
2021/06/23 16:02:29;;;;;;;6.07;4.97;;;;;;;;;;6265182;28;20413;-83
2021/06/23 16:05:31;;;;;;;7.60;5.20;;;;;;;;;;6249184;28;20403;-84
2021/06/23 16:08:32;;;;;;;5.70;5.05;;;;;;;;;;6284540;28;20048;-83
2021/06/23 16:11:34;;;;;;;5.88;5.03;;;;;;;;;;6259471;28;20045;-85
2021/06/23 16:14:37;;;;;;;6.57;5.38;;;;;;;;;;6279958;28;20103;-85
2021/06/23 16:17:38;;;;;;;9.48;5.30;;;;;;;;;;6269494;28;20094;-85
2021/06/23 16:20:43;;;;;;;9.32;5.53;;;;;;;;;;6287689;28;20050;-85
2021/06/23 16:23:49;;;;;;;6.50;5.80;;;;;;;;;;6263296;28;20437;-85
2021/06/23 16:26:52;;;;;;;7.32;6.32;;;;;;;;;;6257403;28;20045;-86
2021/06/23 16:29:53;;;;;;;9.18;7.45;;;;;;;;;;6284941;28;20097;-84
2021/06/23 16:32:55;;;;;;;14.57;8.15;;;;;;;;;;6288422;28;20036;-84
2021/06/23 16:35:56;;;;;;;9.93;7.68;;;;;;;;;;6264563;28;20830;-83
2021/06/23 16:38:58;;;;;;;10.48;9.15;;;;;;;;;;6265170;28;20047;-82
2021/06/23 16:42:00;;;;;;;10.50;8.80;;;;;;;;;;6264534;28;20502;-84
2021/06/23 16:45:03;;;;;;;11.07;9.02;;;;;;;;;;6247741;28;20475;-82
2021/06/23 16:48:05;;;;;;;11.20;8.27;;;;;;;;;;6264458;28;20036;-83
2021/06/23 16:51:07;;;;;;;10.65;9.52;;;;;;;;;;6287723;28;20048;-83
2021/06/23 16:54:09;;;;;;;11.30;9.55;;;;;;;;;;6289686;28;20072;-83
2021/06/23 16:57:11;;;;;;;9.80;8.45;;;;;;;;;;6273129;28;20065;-84
2021/06/23 17:00:12;;;;;;;14.25;9.57;;;;;;;;;;6273437;28;20904;-83
2021/06/23 17:03:14;;;;;;;12.07;9.50;;;;;;;;;;6293313;28;20072;-83
2021/06/23 17:06:17;;;;;;;13.35;8.85;;;;;;;;;;6287381;28;20529;-82
2021/06/23 17:09:19;;;;;;;10.75;9.10;;;;;;;;;;6313988;28;20123;-83
2021/06/23 17:12:21;;;;;;;11.05;8.85;;;;;;;;;;6253006;28;20074;-83
2021/06/23 17:15:25;;;;;;;10.85;9.75;;;;;;;;;;6263414;28;20044;-82
2021/06/23 17:18:28;;;;;;;13.43;9.43;;;;;;;;;;6296343;28;20043;-83
2021/06/23 17:21:31;;;;;;;11.45;9.05;;;;;;;;;;6297460;28;20040;-83
2021/06/23 17:24:35;;;;;;;14.65;9.20;;;;;;;;;;6317619;28;20089;-82
2021/06/23 17:27:37;;;;;;;14.32;9.90;;;;;;;;;;6259896;28;20051;-83
2021/06/23 17:30:40;;;;;;;12.93;10.18;;;;;;;;;;6292090;28;20082;-83
2021/06/23 17:33:43;;;;;;;12.60;10.75;;;;;;;;;;6272617;28;20058;-83
2021/06/23 17:36:45;;;;;;;;;;;;;;;;;;6267277;28;20101;-82
2021/06/23 17:39:46;;;;;;;13.23;10.20;;;;;;;;;;6290549;28;19995;-83
2021/06/23 17:42:48;;;;;;;15.38;10.60;;;;;;;;;;6290132;28;20185;-82
2021/06/23 17:45:49;;;;;;;13.00;10.23;;;;;;;;;;6290627;28;20540;-83
2021/06/23 17:48:51;;;;;;;11.30;10.05;;;;;;;;;;6264015;28;20521;-83
2021/06/23 17:51:53;;;;;;;11.52;10.32;;;;;;;;;;6276339;28;20510;-82
2021/06/23 17:54:54;;;;;;;15.45;11.10;;;;;;;;;;6248559;28;20037;-82
2021/06/23 17:57:59;;;;;;;14.25;10.15;;;;;;;;;;6267701;28;20048;-83
2021/06/23 18:01:02;;;;;;;12.35;10.25;;;;;;;;;;6263142;28;20045;-83
2021/06/23 18:04:04;;;;;;;11.95;10.63;;;;;;;;;;6296223;28;20142;-83
2021/06/23 18:07:05;;;;;;;13.68;10.80;;;;;;;;;;6303158;28;20071;-83
2021/06/23 18:10:08;;;;;;;14.90;11.43;;;;;;;;;;6305328;28;20033;-83
2021/06/23 18:13:09;;;;;;;12.40;10.23;;;;;;;;;;6266079;28;20083;-82
2021/06/23 18:16:11;;;;;;;14.30;10.73;;;;;;;;;;6271600;28;20041;-83
2021/06/23 18:19:13;;;;;;;15.65;11.13;;;;;;;;;;6259457;28;20112;-82
2021/06/23 18:22:14;;;;;;;14.43;11.20;;;;;;;;;;6275273;28;20064;-83
2021/06/23 18:25:16;;;;;;;14.55;11.52;;;;;;;;;;6295180;28;20044;-82
2021/06/23 18:28:18;;;;;;;14.87;11.23;;;;;;;;;;6259864;28;20041;-81
2021/06/23 18:31:20;;;;;;;14.27;11.38;;;;;;;;;;6265017;28;20053;-82
2021/06/23 18:34:22;;;;;;;14.52;11.27;;;;;;;;;;6273824;28;20067;-82
2021/06/23 18:37:24;;;;;;;12.15;10.65;;;;;;;;;;6278415;28;20045;-82
2021/06/23 18:40:28;;;;;;;12.70;10.60;;;;;;;;;;6273184;28;20109;-83